sensor_id;sensor_type;location;lat;lon;timestamp;P1;durP1;ratioP1;P2;durP2;ratioP2
13999;SDS011;7075;53.574;10.054;2024-03-22T00:00:02;22.10;;;11.03;;
13999;SDS011;7075;53.574;10.054;2024-03-22T00:02:27;15.97;;;10.77;;
13999;SDS011;7075;53.574;10.054;2024-03-22T00:04:53;15.73;;;10.60;;
13999;SDS011;7075;53.574;10.054;2024-03-22T00:07:19;16.67;;;10.77;;
13999;SDS011;7075;53.574;10.054;2024-03-22T00:09:45;15.27;;;9.63;;
13999;SDS011;7075;53.574;10.054;2024-03-22T00:12:11;12.57;;;9.60;;
13999;SDS011;7075;53.574;10.054;2024-03-22T00:14:37;13.43;;;10.37;;
13999;SDS011;7075;53.574;10.054;2024-03-22T00:17:09;17.57;;;10.83;;
13999;SDS011;7075;53.574;10.054;2024-03-22T00:19:41;16.97;;;9.43;;
13999;SDS011;7075;53.574;10.054;2024-03-22T00:22:07;19.77;;;9.87;;
13999;SDS011;7075;53.574;10.054;2024-03-22T00:24:33;15.57;;;10.33;;
13999;SDS011;7075;53.574;10.054;2024-03-22T00:26:59;15.00;;;9.17;;
13999;SDS011;7075;53.574;10.054;2024-03-22T00:29:25;14.03;;;10.30;;
13999;SDS011;7075;53.574;10.054;2024-03-22T00:31:51;15.30;;;9.53;;
13999;SDS011;7075;53.574;10.054;2024-03-22T00:34:17;14.90;;;9.30;;
13999;SDS011;7075;53.574;10.054;2024-03-22T00:36:44;17.10;;;10.17;;
13999;SDS011;7075;53.574;10.054;2024-03-22T00:39:10;19.10;;;10.50;;
13999;SDS011;7075;53.574;10.054;2024-03-22T00:41:37;14.03;;;9.50;;
13999;SDS011;7075;53.574;10.054;2024-03-22T00:44:04;15.13;;;9.23;;
13999;SDS011;7075;53.574;10.054;2024-03-22T00:46:30;16.63;;;10.77;;
13999;SDS011;7075;53.574;10.054;2024-03-22T00:48:56;15.70;;;10.37;;
13999;SDS011;7075;53.574;10.054;2024-03-22T00:51:26;15.20;;;10.93;;
13999;SDS011;7075;53.574;10.054;2024-03-22T00:53:52;14.07;;;9.77;;
13999;SDS011;7075;53.574;10.054;2024-03-22T00:56:18;18.73;;;11.10;;
13999;SDS011;7075;53.574;10.054;2024-03-22T00:58:44;17.63;;;10.20;;
13999;SDS011;7075;53.574;10.054;2024-03-22T01:01:10;14.10;;;9.90;;
13999;SDS011;7075;53.574;10.054;2024-03-22T01:03:36;15.80;;;11.03;;
13999;SDS011;7075;53.574;10.054;2024-03-22T01:06:02;13.17;;;10.27;;
13999;SDS011;7075;53.574;10.054;2024-03-22T01:08:28;14.90;;;10.60;;
13999;SDS011;7075;53.574;10.054;2024-03-22T01:10:54;15.00;;;10.43;;
13999;SDS011;7075;53.574;10.054;2024-03-22T01:13:20;16.13;;;11.23;;
13999;SDS011;7075;53.574;10.054;2024-03-22T01:15:46;19.80;;;11.20;;
13999;SDS011;7075;53.574;10.054;2024-03-22T01:18:12;15.87;;;10.63;;
13999;SDS011;7075;53.574;10.054;2024-03-22T01:20:38;19.03;;;11.20;;
13999;SDS011;7075;53.574;10.054;2024-03-22T01:23:04;15.13;;;11.00;;
13999;SDS011;7075;53.574;10.054;2024-03-22T01:25:30;15.33;;;10.63;;
13999;SDS011;7075;53.574;10.054;2024-03-22T01:27:56;15.23;;;10.70;;
13999;SDS011;7075;53.574;10.054;2024-03-22T01:30:22;14.77;;;10.50;;
13999;SDS011;7075;53.574;10.054;2024-03-22T01:32:53;15.20;;;11.67;;
13999;SDS011;7075;53.574;10.054;2024-03-22T01:35:19;13.43;;;10.50;;
13999;SDS011;7075;53.574;10.054;2024-03-22T01:37:45;15.80;;;10.87;;
13999;SDS011;7075;53.574;10.054;2024-03-22T01:40:12;17.23;;;11.53;;
13999;SDS011;7075;53.574;10.054;2024-03-22T01:42:38;15.77;;;10.67;;
13999;SDS011;7075;53.574;10.054;2024-03-22T01:45:05;16.03;;;11.83;;
13999;SDS011;7075;53.574;10.054;2024-03-22T01:47:31;17.27;;;12.43;;
13999;SDS011;7075;53.574;10.054;2024-03-22T01:49:57;16.93;;;11.07;;
13999;SDS011;7075;53.574;10.054;2024-03-22T01:52:23;16.53;;;12.00;;
13999;SDS011;7075;53.574;10.054;2024-03-22T01:54:49;16.70;;;12.90;;
13999;SDS011;7075;53.574;10.054;2024-03-22T01:57:15;17.90;;;12.47;;
13999;SDS011;7075;53.574;10.054;2024-03-22T01:59:47;19.67;;;11.80;;
13999;SDS011;7075;53.574;10.054;2024-03-22T02:02:15;16.57;;;12.10;;
13999;SDS011;7075;53.574;10.054;2024-03-22T02:04:45;16.83;;;12.97;;
13999;SDS011;7075;53.574;10.054;2024-03-22T02:07:11;21.53;;;13.57;;
13999;SDS011;7075;53.574;10.054;2024-03-22T02:09:37;15.97;;;12.17;;
13999;SDS011;7075;53.574;10.054;2024-03-22T02:12:03;18.90;;;14.43;;
13999;SDS011;7075;53.574;10.054;2024-03-22T02:14:29;17.97;;;13.43;;
13999;SDS011;7075;53.574;10.054;2024-03-22T02:16:54;16.83;;;13.40;;
13999;SDS011;7075;53.574;10.054;2024-03-22T02:19:20;19.87;;;13.53;;
13999;SDS011;7075;53.574;10.054;2024-03-22T02:21:46;20.77;;;14.20;;
13999;SDS011;7075;53.574;10.054;2024-03-22T02:24:13;20.07;;;14.30;;
13999;SDS011;7075;53.574;10.054;2024-03-22T02:26:38;19.60;;;14.67;;
13999;SDS011;7075;53.574;10.054;2024-03-22T02:29:04;19.90;;;13.70;;
13999;SDS011;7075;53.574;10.054;2024-03-22T02:31:30;19.80;;;14.20;;
13999;SDS011;7075;53.574;10.054;2024-03-22T02:33:57;20.33;;;14.07;;
13999;SDS011;7075;53.574;10.054;2024-03-22T02:36:23;22.47;;;15.13;;
13999;SDS011;7075;53.574;10.054;2024-03-22T02:38:49;23.57;;;15.17;;
13999;SDS011;7075;53.574;10.054;2024-03-22T02:41:15;24.57;;;16.53;;
13999;SDS011;7075;53.574;10.054;2024-03-22T02:43:44;21.07;;;14.23;;
13999;SDS011;7075;53.574;10.054;2024-03-22T02:46:10;22.63;;;15.33;;
13999;SDS011;7075;53.574;10.054;2024-03-22T02:48:36;25.07;;;16.47;;
13999;SDS011;7075;53.574;10.054;2024-03-22T02:51:02;22.30;;;16.57;;
13999;SDS011;7075;53.574;10.054;2024-03-22T02:53:28;22.77;;;16.63;;
13999;SDS011;7075;53.574;10.054;2024-03-22T02:55:54;25.33;;;18.27;;
13999;SDS011;7075;53.574;10.054;2024-03-22T02:58:20;24.93;;;17.97;;
13999;SDS011;7075;53.574;10.054;2024-03-22T03:00:47;25.87;;;18.63;;
13999;SDS011;7075;53.574;10.054;2024-03-22T03:03:13;22.47;;;17.60;;
13999;SDS011;7075;53.574;10.054;2024-03-22T03:05:42;23.90;;;17.60;;
13999;SDS011;7075;53.574;10.054;2024-03-22T03:08:09;28.87;;;18.33;;
13999;SDS011;7075;53.574;10.054;2024-03-22T03:10:35;23.93;;;18.53;;
13999;SDS011;7075;53.574;10.054;2024-03-22T03:13:01;28.23;;;20.17;;
13999;SDS011;7075;53.574;10.054;2024-03-22T03:15:27;25.20;;;19.60;;
13999;SDS011;7075;53.574;10.054;2024-03-22T03:17:52;27.17;;;18.83;;
13999;SDS011;7075;53.574;10.054;2024-03-22T03:20:19;30.90;;;19.83;;
13999;SDS011;7075;53.574;10.054;2024-03-22T03:22:44;30.03;;;21.33;;
13999;SDS011;7075;53.574;10.054;2024-03-22T03:25:10;28.80;;;21.13;;
13999;SDS011;7075;53.574;10.054;2024-03-22T03:27:36;27.30;;;19.93;;
13999;SDS011;7075;53.574;10.054;2024-03-22T03:30:03;27.30;;;20.77;;
13999;SDS011;7075;53.574;10.054;2024-03-22T03:32:29;30.03;;;20.57;;
13999;SDS011;7075;53.574;10.054;2024-03-22T03:34:55;30.83;;;21.90;;
13999;SDS011;7075;53.574;10.054;2024-03-22T03:37:24;27.43;;;20.50;;
13999;SDS011;7075;53.574;10.054;2024-03-22T03:39:50;27.77;;;21.17;;
13999;SDS011;7075;53.574;10.054;2024-03-22T03:42:16;28.00;;;20.47;;
13999;SDS011;7075;53.574;10.054;2024-03-22T03:44:42;31.27;;;21.87;;
13999;SDS011;7075;53.574;10.054;2024-03-22T03:47:08;31.77;;;22.53;;
13999;SDS011;7075;53.574;10.054;2024-03-22T03:49:34;29.47;;;20.43;;
13999;SDS011;7075;53.574;10.054;2024-03-22T03:52:00;30.77;;;22.80;;
13999;SDS011;7075;53.574;10.054;2024-03-22T03:54:26;32.37;;;21.97;;
13999;SDS011;7075;53.574;10.054;2024-03-22T03:56:52;29.00;;;21.70;;
13999;SDS011;7075;53.574;10.054;2024-03-22T03:59:18;32.53;;;22.57;;
13999;SDS011;7075;53.574;10.054;2024-03-22T04:01:44;32.87;;;23.93;;
13999;SDS011;7075;53.574;10.054;2024-03-22T04:04:10;33.67;;;23.53;;
13999;SDS011;7075;53.574;10.054;2024-03-22T04:06:36;31.97;;;22.93;;
13999;SDS011;7075;53.574;10.054;2024-03-22T04:09:02;38.47;;;22.30;;
13999;SDS011;7075;53.574;10.054;2024-03-22T04:11:28;33.23;;;24.00;;
13999;SDS011;7075;53.574;10.054;2024-03-22T04:13:54;35.60;;;26.07;;
13999;SDS011;7075;53.574;10.054;2024-03-22T04:16:20;33.63;;;24.33;;
13999;SDS011;7075;53.574;10.054;2024-03-22T04:18:46;33.27;;;24.80;;
13999;SDS011;7075;53.574;10.054;2024-03-22T04:21:12;31.13;;;23.33;;
13999;SDS011;7075;53.574;10.054;2024-03-22T04:23:38;34.50;;;24.77;;
13999;SDS011;7075;53.574;10.054;2024-03-22T04:26:04;34.73;;;24.07;;
13999;SDS011;7075;53.574;10.054;2024-03-22T04:28:33;35.30;;;24.93;;
13999;SDS011;7075;53.574;10.054;2024-03-22T04:31:05;37.40;;;24.77;;
13999;SDS011;7075;53.574;10.054;2024-03-22T04:33:35;33.93;;;22.97;;
13999;SDS011;7075;53.574;10.054;2024-03-22T04:36:02;32.73;;;25.07;;
13999;SDS011;7075;53.574;10.054;2024-03-22T04:38:28;36.30;;;24.87;;
13999;SDS011;7075;53.574;10.054;2024-03-22T04:40:55;30.77;;;23.80;;
13999;SDS011;7075;53.574;10.054;2024-03-22T04:43:21;34.40;;;24.90;;
13999;SDS011;7075;53.574;10.054;2024-03-22T04:45:47;34.53;;;24.60;;
13999;SDS011;7075;53.574;10.054;2024-03-22T04:48:23;36.77;;;24.50;;
13999;SDS011;7075;53.574;10.054;2024-03-22T04:50:49;37.17;;;25.30;;
13999;SDS011;7075;53.574;10.054;2024-03-22T04:53:16;34.17;;;25.27;;
13999;SDS011;7075;53.574;10.054;2024-03-22T04:55:45;34.33;;;24.40;;
13999;SDS011;7075;53.574;10.054;2024-03-22T04:58:13;37.60;;;25.73;;
13999;SDS011;7075;53.574;10.054;2024-03-22T05:00:39;35.53;;;25.60;;
13999;SDS011;7075;53.574;10.054;2024-03-22T05:03:05;32.40;;;24.63;;
13999;SDS011;7075;53.574;10.054;2024-03-22T05:05:31;38.90;;;26.57;;
13999;SDS011;7075;53.574;10.054;2024-03-22T05:07:57;36.73;;;25.93;;
13999;SDS011;7075;53.574;10.054;2024-03-22T05:10:23;38.67;;;26.00;;
13999;SDS011;7075;53.574;10.054;2024-03-22T05:12:49;36.03;;;25.13;;
13999;SDS011;7075;53.574;10.054;2024-03-22T05:15:14;34.97;;;25.33;;
13999;SDS011;7075;53.574;10.054;2024-03-22T05:17:41;35.77;;;27.40;;
13999;SDS011;7075;53.574;10.054;2024-03-22T05:20:08;36.40;;;25.33;;
13999;SDS011;7075;53.574;10.054;2024-03-22T05:22:36;45.17;;;26.70;;
13999;SDS011;7075;53.574;10.054;2024-03-22T05:25:03;43.30;;;27.10;;
13999;SDS011;7075;53.574;10.054;2024-03-22T05:27:30;38.90;;;25.93;;
13999;SDS011;7075;53.574;10.054;2024-03-22T05:29:59;38.57;;;25.20;;
13999;SDS011;7075;53.574;10.054;2024-03-22T05:32:32;35.87;;;24.23;;
13999;SDS011;7075;53.574;10.054;2024-03-22T05:34:58;34.87;;;26.50;;
13999;SDS011;7075;53.574;10.054;2024-03-22T05:37:24;36.03;;;24.80;;
13999;SDS011;7075;53.574;10.054;2024-03-22T05:39:50;35.73;;;25.87;;
13999;SDS011;7075;53.574;10.054;2024-03-22T05:42:16;40.47;;;27.57;;
13999;SDS011;7075;53.574;10.054;2024-03-22T05:44:43;38.90;;;26.67;;
13999;SDS011;7075;53.574;10.054;2024-03-22T05:47:09;43.30;;;26.47;;
13999;SDS011;7075;53.574;10.054;2024-03-22T05:49:35;42.17;;;28.00;;
13999;SDS011;7075;53.574;10.054;2024-03-22T05:52:04;37.93;;;26.13;;
13999;SDS011;7075;53.574;10.054;2024-03-22T05:54:30;42.90;;;28.30;;
13999;SDS011;7075;53.574;10.054;2024-03-22T05:56:56;42.57;;;27.87;;
13999;SDS011;7075;53.574;10.054;2024-03-22T05:59:22;42.60;;;29.60;;
13999;SDS011;7075;53.574;10.054;2024-03-22T06:01:48;41.73;;;28.00;;
13999;SDS011;7075;53.574;10.054;2024-03-22T06:04:14;42.40;;;28.70;;
13999;SDS011;7075;53.574;10.054;2024-03-22T06:06:40;43.57;;;29.50;;
13999;SDS011;7075;53.574;10.054;2024-03-22T06:09:06;42.13;;;28.40;;
13999;SDS011;7075;53.574;10.054;2024-03-22T06:11:36;40.50;;;27.80;;
13999;SDS011;7075;53.574;10.054;2024-03-22T06:14:02;43.57;;;29.33;;
13999;SDS011;7075;53.574;10.054;2024-03-22T06:16:27;39.87;;;27.63;;
13999;SDS011;7075;53.574;10.054;2024-03-22T06:18:53;42.13;;;29.83;;
13999;SDS011;7075;53.574;10.054;2024-03-22T06:21:19;42.50;;;29.43;;
13999;SDS011;7075;53.574;10.054;2024-03-22T06:23:49;46.87;;;28.93;;
13999;SDS011;7075;53.574;10.054;2024-03-22T06:26:15;44.57;;;29.83;;
13999;SDS011;7075;53.574;10.054;2024-03-22T06:28:41;43.17;;;29.07;;
13999;SDS011;7075;53.574;10.054;2024-03-22T06:31:07;44.17;;;30.40;;
13999;SDS011;7075;53.574;10.054;2024-03-22T06:33:33;43.83;;;29.40;;
13999;SDS011;7075;53.574;10.054;2024-03-22T06:36:02;42.37;;;29.47;;
13999;SDS011;7075;53.574;10.054;2024-03-22T06:38:29;43.93;;;28.90;;
13999;SDS011;7075;53.574;10.054;2024-03-22T06:40:57;47.23;;;30.33;;
13999;SDS011;7075;53.574;10.054;2024-03-22T06:43:24;44.47;;;29.50;;
13999;SDS011;7075;53.574;10.054;2024-03-22T06:45:50;49.80;;;31.50;;
13999;SDS011;7075;53.574;10.054;2024-03-22T06:48:16;45.17;;;30.63;;
13999;SDS011;7075;53.574;10.054;2024-03-22T06:50:42;44.37;;;30.43;;
13999;SDS011;7075;53.574;10.054;2024-03-22T06:53:08;44.87;;;31.03;;
13999;SDS011;7075;53.574;10.054;2024-03-22T06:55:35;44.10;;;29.73;;
13999;SDS011;7075;53.574;10.054;2024-03-22T06:58:01;52.07;;;31.43;;
13999;SDS011;7075;53.574;10.054;2024-03-22T07:00:29;42.47;;;29.93;;
13999;SDS011;7075;53.574;10.054;2024-03-22T07:02:55;44.93;;;30.27;;
13999;SDS011;7075;53.574;10.054;2024-03-22T07:05:21;42.20;;;29.67;;
13999;SDS011;7075;53.574;10.054;2024-03-22T07:07:47;44.70;;;29.90;;
13999;SDS011;7075;53.574;10.054;2024-03-22T07:10:15;49.10;;;30.67;;
13999;SDS011;7075;53.574;10.054;2024-03-22T07:12:41;45.33;;;29.23;;
13999;SDS011;7075;53.574;10.054;2024-03-22T07:15:12;46.70;;;31.20;;
13999;SDS011;7075;53.574;10.054;2024-03-22T07:17:41;48.23;;;31.03;;
13999;SDS011;7075;53.574;10.054;2024-03-22T07:20:07;45.50;;;29.87;;
13999;SDS011;7075;53.574;10.054;2024-03-22T07:22:33;45.53;;;29.57;;
13999;SDS011;7075;53.574;10.054;2024-03-22T07:24:59;47.20;;;30.30;;
13999;SDS011;7075;53.574;10.054;2024-03-22T07:27:25;47.97;;;31.30;;
13999;SDS011;7075;53.574;10.054;2024-03-22T07:29:54;49.47;;;32.07;;
13999;SDS011;7075;53.574;10.054;2024-03-22T07:32:20;46.47;;;32.00;;
13999;SDS011;7075;53.574;10.054;2024-03-22T07:34:46;45.37;;;32.33;;
13999;SDS011;7075;53.574;10.054;2024-03-22T07:37:12;49.80;;;32.07;;
13999;SDS011;7075;53.574;10.054;2024-03-22T07:39:38;46.30;;;31.23;;
13999;SDS011;7075;53.574;10.054;2024-03-22T07:42:04;45.23;;;30.67;;
13999;SDS011;7075;53.574;10.054;2024-03-22T07:44:30;49.77;;;33.03;;
13999;SDS011;7075;53.574;10.054;2024-03-22T07:46:56;51.07;;;33.20;;
13999;SDS011;7075;53.574;10.054;2024-03-22T07:49:22;46.50;;;32.20;;
13999;SDS011;7075;53.574;10.054;2024-03-22T07:51:47;49.30;;;32.33;;
13999;SDS011;7075;53.574;10.054;2024-03-22T07:54:16;46.47;;;30.97;;
13999;SDS011;7075;53.574;10.054;2024-03-22T07:56:42;48.57;;;32.23;;
13999;SDS011;7075;53.574;10.054;2024-03-22T07:59:08;55.10;;;33.27;;
13999;SDS011;7075;53.574;10.054;2024-03-22T08:01:34;52.67;;;34.23;;
13999;SDS011;7075;53.574;10.054;2024-03-22T08:04:01;47.47;;;31.87;;
13999;SDS011;7075;53.574;10.054;2024-03-22T08:06:26;52.53;;;33.83;;
13999;SDS011;7075;53.574;10.054;2024-03-22T08:08:52;51.03;;;32.27;;
13999;SDS011;7075;53.574;10.054;2024-03-22T08:11:19;54.47;;;33.87;;
13999;SDS011;7075;53.574;10.054;2024-03-22T08:13:45;53.00;;;35.17;;
13999;SDS011;7075;53.574;10.054;2024-03-22T08:16:11;53.30;;;34.13;;
13999;SDS011;7075;53.574;10.054;2024-03-22T08:18:37;54.47;;;34.87;;
13999;SDS011;7075;53.574;10.054;2024-03-22T08:21:03;48.80;;;33.13;;
13999;SDS011;7075;53.574;10.054;2024-03-22T08:23:29;48.67;;;32.63;;
13999;SDS011;7075;53.574;10.054;2024-03-22T08:25:55;53.83;;;34.60;;
13999;SDS011;7075;53.574;10.054;2024-03-22T08:28:22;55.50;;;35.37;;
13999;SDS011;7075;53.574;10.054;2024-03-22T08:30:48;52.73;;;35.27;;
13999;SDS011;7075;53.574;10.054;2024-03-22T08:33:14;57.87;;;35.80;;
13999;SDS011;7075;53.574;10.054;2024-03-22T08:35:40;53.27;;;34.20;;
13999;SDS011;7075;53.574;10.054;2024-03-22T08:38:09;53.00;;;34.93;;
13999;SDS011;7075;53.574;10.054;2024-03-22T08:40:38;53.93;;;34.27;;
13999;SDS011;7075;53.574;10.054;2024-03-22T08:43:05;54.23;;;34.37;;
13999;SDS011;7075;53.574;10.054;2024-03-22T08:45:34;51.07;;;34.67;;
13999;SDS011;7075;53.574;10.054;2024-03-22T08:48:00;50.10;;;32.67;;
13999;SDS011;7075;53.574;10.054;2024-03-22T08:50:27;56.70;;;34.27;;
13999;SDS011;7075;53.574;10.054;2024-03-22T08:52:53;58.60;;;35.67;;
13999;SDS011;7075;53.574;10.054;2024-03-22T08:55:19;54.73;;;34.90;;
13999;SDS011;7075;53.574;10.054;2024-03-22T08:57:45;57.00;;;35.37;;
13999;SDS011;7075;53.574;10.054;2024-03-22T09:00:14;53.90;;;33.97;;
13999;SDS011;7075;53.574;10.054;2024-03-22T09:02:40;51.13;;;33.80;;
13999;SDS011;7075;53.574;10.054;2024-03-22T09:05:06;62.03;;;37.60;;
13999;SDS011;7075;53.574;10.054;2024-03-22T09:07:33;55.97;;;35.10;;
13999;SDS011;7075;53.574;10.054;2024-03-22T09:09:59;52.60;;;35.20;;
13999;SDS011;7075;53.574;10.054;2024-03-22T09:12:25;58.03;;;36.07;;
13999;SDS011;7075;53.574;10.054;2024-03-22T09:14:51;60.10;;;35.83;;
13999;SDS011;7075;53.574;10.054;2024-03-22T09:17:17;54.20;;;35.80;;
13999;SDS011;7075;53.574;10.054;2024-03-22T09:19:43;55.53;;;36.33;;
13999;SDS011;7075;53.574;10.054;2024-03-22T09:22:09;64.27;;;36.97;;
13999;SDS011;7075;53.574;10.054;2024-03-22T09:24:35;56.93;;;36.00;;
13999;SDS011;7075;53.574;10.054;2024-03-22T09:27:01;58.47;;;35.83;;
13999;SDS011;7075;53.574;10.054;2024-03-22T09:29:29;60.27;;;35.47;;
13999;SDS011;7075;53.574;10.054;2024-03-22T09:31:58;52.43;;;34.30;;
13999;SDS011;7075;53.574;10.054;2024-03-22T09:34:24;58.30;;;33.93;;
13999;SDS011;7075;53.574;10.054;2024-03-22T09:36:50;70.03;;;32.90;;
13999;SDS011;7075;53.574;10.054;2024-03-22T09:39:16;53.10;;;33.87;;
13999;SDS011;7075;53.574;10.054;2024-03-22T09:41:43;47.90;;;32.07;;
13999;SDS011;7075;53.574;10.054;2024-03-22T09:44:13;52.33;;;31.50;;
13999;SDS011;7075;53.574;10.054;2024-03-22T09:46:42;52.83;;;30.93;;
13999;SDS011;7075;53.574;10.054;2024-03-22T09:49:11;47.90;;;30.37;;
13999;SDS011;7075;53.574;10.054;2024-03-22T09:51:40;44.60;;;28.30;;
13999;SDS011;7075;53.574;10.054;2024-03-22T09:54:08;43.40;;;29.00;;
13999;SDS011;7075;53.574;10.054;2024-03-22T09:56:34;44.57;;;28.03;;
13999;SDS011;7075;53.574;10.054;2024-03-22T09:59:00;46.67;;;28.90;;
13999;SDS011;7075;53.574;10.054;2024-03-22T10:01:26;41.13;;;27.23;;
13999;SDS011;7075;53.574;10.054;2024-03-22T10:03:53;48.37;;;28.97;;
13999;SDS011;7075;53.574;10.054;2024-03-22T10:06:20;45.70;;;29.37;;
13999;SDS011;7075;53.574;10.054;2024-03-22T10:08:45;44.17;;;27.53;;
13999;SDS011;7075;53.574;10.054;2024-03-22T10:11:12;49.80;;;29.50;;
13999;SDS011;7075;53.574;10.054;2024-03-22T10:13:38;46.17;;;28.53;;
13999;SDS011;7075;53.574;10.054;2024-03-22T10:16:04;43.50;;;29.10;;
13999;SDS011;7075;53.574;10.054;2024-03-22T10:18:32;44.30;;;29.37;;
13999;SDS011;7075;53.574;10.054;2024-03-22T10:20:59;46.80;;;29.60;;
13999;SDS011;7075;53.574;10.054;2024-03-22T10:23:25;42.00;;;28.20;;
13999;SDS011;7075;53.574;10.054;2024-03-22T10:25:51;40.03;;;27.57;;
13999;SDS011;7075;53.574;10.054;2024-03-22T10:28:17;42.90;;;27.57;;
13999;SDS011;7075;53.574;10.054;2024-03-22T10:30:43;41.20;;;26.40;;
13999;SDS011;7075;53.574;10.054;2024-03-22T10:33:10;38.20;;;25.10;;
13999;SDS011;7075;53.574;10.054;2024-03-22T10:35:36;41.37;;;26.60;;
13999;SDS011;7075;53.574;10.054;2024-03-22T10:38:03;39.80;;;25.00;;
13999;SDS011;7075;53.574;10.054;2024-03-22T10:40:29;36.73;;;24.10;;
13999;SDS011;7075;53.574;10.054;2024-03-22T10:42:55;36.47;;;22.93;;
13999;SDS011;7075;53.574;10.054;2024-03-22T10:45:22;34.60;;;22.03;;
13999;SDS011;7075;53.574;10.054;2024-03-22T10:47:50;30.10;;;20.40;;
13999;SDS011;7075;53.574;10.054;2024-03-22T10:50:18;28.30;;;19.57;;
13999;SDS011;7075;53.574;10.054;2024-03-22T10:53:01;29.27;;;18.83;;
13999;SDS011;7075;53.574;10.054;2024-03-22T10:55:30;24.70;;;17.60;;
13999;SDS011;7075;53.574;10.054;2024-03-22T10:57:58;22.43;;;16.13;;
13999;SDS011;7075;53.574;10.054;2024-03-22T11:00:27;23.67;;;17.03;;
13999;SDS011;7075;53.574;10.054;2024-03-22T11:02:54;21.67;;;15.23;;
13999;SDS011;7075;53.574;10.054;2024-03-22T11:05:21;21.37;;;15.00;;
13999;SDS011;7075;53.574;10.054;2024-03-22T11:07:59;20.53;;;13.13;;
13999;SDS011;7075;53.574;10.054;2024-03-22T11:10:28;21.27;;;13.07;;
13999;SDS011;7075;53.574;10.054;2024-03-22T11:13:06;19.83;;;12.93;;
13999;SDS011;7075;53.574;10.054;2024-03-22T11:15:36;15.93;;;12.17;;
13999;SDS011;7075;53.574;10.054;2024-03-22T11:18:04;18.83;;;11.90;;
13999;SDS011;7075;53.574;10.054;2024-03-22T11:20:30;17.23;;;11.57;;
13999;SDS011;7075;53.574;10.054;2024-03-22T11:22:56;16.30;;;11.40;;
13999;SDS011;7075;53.574;10.054;2024-03-22T11:25:22;16.33;;;11.70;;
13999;SDS011;7075;53.574;10.054;2024-03-22T11:27:49;13.00;;;10.13;;
13999;SDS011;7075;53.574;10.054;2024-03-22T11:30:15;12.03;;;9.90;;
13999;SDS011;7075;53.574;10.054;2024-03-22T11:32:41;14.27;;;10.27;;
13999;SDS011;7075;53.574;10.054;2024-03-22T11:35:09;15.23;;;11.43;;
13999;SDS011;7075;53.574;10.054;2024-03-22T11:37:36;11.90;;;9.37;;
13999;SDS011;7075;53.574;10.054;2024-03-22T11:40:06;13.00;;;10.00;;
13999;SDS011;7075;53.574;10.054;2024-03-22T11:42:33;11.53;;;9.40;;
13999;SDS011;7075;53.574;10.054;2024-03-22T11:45:00;12.27;;;9.20;;
13999;SDS011;7075;53.574;10.054;2024-03-22T11:47:27;11.03;;;9.20;;
13999;SDS011;7075;53.574;10.054;2024-03-22T11:49:53;10.93;;;8.90;;
13999;SDS011;7075;53.574;10.054;2024-03-22T11:52:23;14.17;;;9.60;;
13999;SDS011;7075;53.574;10.054;2024-03-22T11:54:52;13.47;;;10.00;;
13999;SDS011;7075;53.574;10.054;2024-03-22T11:57:20;12.33;;;9.47;;
13999;SDS011;7075;53.574;10.054;2024-03-22T11:59:46;12.17;;;9.47;;
13999;SDS011;7075;53.574;10.054;2024-03-22T12:02:12;14.87;;;10.23;;
13999;SDS011;7075;53.574;10.054;2024-03-22T12:04:47;12.90;;;10.07;;
13999;SDS011;7075;53.574;10.054;2024-03-22T12:07:14;14.30;;;9.80;;
13999;SDS011;7075;53.574;10.054;2024-03-22T12:09:43;12.93;;;10.03;;
13999;SDS011;7075;53.574;10.054;2024-03-22T12:12:10;12.60;;;9.87;;
13999;SDS011;7075;53.574;10.054;2024-03-22T12:14:39;14.50;;;11.13;;
13999;SDS011;7075;53.574;10.054;2024-03-22T12:17:05;13.63;;;9.30;;
13999;SDS011;7075;53.574;10.054;2024-03-22T12:19:32;16.23;;;10.80;;
13999;SDS011;7075;53.574;10.054;2024-03-22T12:21:58;13.47;;;9.40;;
13999;SDS011;7075;53.574;10.054;2024-03-22T12:24:27;12.60;;;9.00;;
13999;SDS011;7075;53.574;10.054;2024-03-22T12:26:53;13.47;;;9.13;;
13999;SDS011;7075;53.574;10.054;2024-03-22T12:29:19;15.93;;;10.23;;
13999;SDS011;7075;53.574;10.054;2024-03-22T12:31:45;16.80;;;9.83;;
13999;SDS011;7075;53.574;10.054;2024-03-22T12:34:11;11.63;;;8.93;;
13999;SDS011;7075;53.574;10.054;2024-03-22T12:36:37;12.07;;;9.00;;
13999;SDS011;7075;53.574;10.054;2024-03-22T12:39:04;11.40;;;8.57;;
13999;SDS011;7075;53.574;10.054;2024-03-22T12:41:30;11.77;;;9.33;;
13999;SDS011;7075;53.574;10.054;2024-03-22T12:43:56;14.57;;;9.10;;
13999;SDS011;7075;53.574;10.054;2024-03-22T12:46:22;11.00;;;8.83;;
13999;SDS011;7075;53.574;10.054;2024-03-22T12:48:49;10.67;;;8.60;;
13999;SDS011;7075;53.574;10.054;2024-03-22T12:51:15;12.30;;;9.03;;
13999;SDS011;7075;53.574;10.054;2024-03-22T12:53:42;15.67;;;8.10;;
13999;SDS011;7075;53.574;10.054;2024-03-22T12:56:07;12.40;;;9.50;;
13999;SDS011;7075;53.574;10.054;2024-03-22T12:58:33;11.93;;;8.60;;
13999;SDS011;7075;53.574;10.054;2024-03-22T13:01:00;9.97;;;8.13;;
13999;SDS011;7075;53.574;10.054;2024-03-22T13:03:27;9.27;;;7.50;;
13999;SDS011;7075;53.574;10.054;2024-03-22T13:05:56;7.17;;;6.03;;
13999;SDS011;7075;53.574;10.054;2024-03-22T13:08:22;6.23;;;5.30;;
13999;SDS011;7075;53.574;10.054;2024-03-22T13:10:48;5.27;;;4.70;;
13999;SDS011;7075;53.574;10.054;2024-03-22T13:13:14;6.17;;;4.80;;
13999;SDS011;7075;53.574;10.054;2024-03-22T13:15:41;5.13;;;4.60;;
13999;SDS011;7075;53.574;10.054;2024-03-22T13:18:07;4.60;;;4.17;;
13999;SDS011;7075;53.574;10.054;2024-03-22T13:20:36;4.77;;;3.60;;
13999;SDS011;7075;53.574;10.054;2024-03-22T13:23:03;2.93;;;2.67;;
13999;SDS011;7075;53.574;10.054;2024-03-22T13:25:32;2.57;;;2.10;;
13999;SDS011;7075;53.574;10.054;2024-03-22T13:28:01;2.20;;;2.00;;
13999;SDS011;7075;53.574;10.054;2024-03-22T13:30:30;2.23;;;2.03;;
13999;SDS011;7075;53.574;10.054;2024-03-22T13:32:56;1.97;;;1.80;;
13999;SDS011;7075;53.574;10.054;2024-03-22T13:35:22;1.90;;;1.80;;
13999;SDS011;7075;53.574;10.054;2024-03-22T13:37:48;2.23;;;1.53;;
13999;SDS011;7075;53.574;10.054;2024-03-22T13:40:14;2.13;;;1.70;;
13999;SDS011;7075;53.574;10.054;2024-03-22T13:42:46;2.53;;;1.80;;
13999;SDS011;7075;53.574;10.054;2024-03-22T13:45:12;3.10;;;1.73;;
13999;SDS011;7075;53.574;10.054;2024-03-22T13:47:38;2.00;;;1.73;;
13999;SDS011;7075;53.574;10.054;2024-03-22T13:50:05;1.67;;;1.57;;
13999;SDS011;7075;53.574;10.054;2024-03-22T13:52:34;3.40;;;2.03;;
13999;SDS011;7075;53.574;10.054;2024-03-22T13:55:00;1.93;;;1.83;;
13999;SDS011;7075;53.574;10.054;2024-03-22T13:57:26;1.57;;;1.47;;
13999;SDS011;7075;53.574;10.054;2024-03-22T13:59:52;2.07;;;1.87;;
13999;SDS011;7075;53.574;10.054;2024-03-22T14:02:19;2.53;;;1.77;;
13999;SDS011;7075;53.574;10.054;2024-03-22T14:04:45;3.50;;;1.70;;
13999;SDS011;7075;53.574;10.054;2024-03-22T14:07:11;1.43;;;1.33;;
13999;SDS011;7075;53.574;10.054;2024-03-22T14:09:37;2.00;;;1.80;;
13999;SDS011;7075;53.574;10.054;2024-03-22T14:12:04;1.90;;;1.80;;
13999;SDS011;7075;53.574;10.054;2024-03-22T14:14:31;2.00;;;1.40;;
13999;SDS011;7075;53.574;10.054;2024-03-22T14:16:57;1.90;;;1.73;;
13999;SDS011;7075;53.574;10.054;2024-03-22T14:19:24;1.50;;;1.40;;
13999;SDS011;7075;53.574;10.054;2024-03-22T14:21:50;2.77;;;1.43;;